Time;durP1;ratioP1;P1;durP2;ratioP2;P2;SDS_P1;SDS_P2;PMS_P1;PMS_P2;Temp;Humidity;BMP_temperature;BMP_pressure;BME280_temperature;BME280_humidity;BME280_pressure;Samples;Min_cycle;Max_cycle;Signal;HPM_P1;HPM_P2
2022/12/17 13:07:20;;;;;;;;;;;;;;;-1.03;66.10;99205.41;7379306;19;19939;-73
2022/12/17 13:09:49;;;;;;;;;;;;;;;-1.02;65.44;99202.78;7376514;19;19965;-74
2022/12/17 13:12:19;;;;;;;;;;;;;;;-1.18;66.14;99207.75;7378138;19;20314;-74
2022/12/17 13:14:49;;;;;;;;;;;;;;;-1.18;66.22;99206.91;7374086;19;19922;-73
2022/12/17 13:17:16;;;;;;;;;;;;;;;-1.14;66.04;99198.06;7380599;19;19927;-74
2022/12/17 13:19:43;;;;;;;;;;;;;;;-0.99;66.24;99194.00;7375124;19;19915;-73
2022/12/17 13:22:13;;;;;;;;;;;;;;;-1.23;66.08;99196.69;7376484;19;19922;-73
2022/12/17 13:24:48;;;;;;;;;;;;;;;-1.13;66.72;99203.22;7377570;19;19927;-74
2022/12/17 13:27:26;;;;;;;;;;;;;;;-1.50;66.35;99196.06;7377779;19;19927;-73
2022/12/17 13:29:52;;;;;;;;;;;;;;;-1.57;67.16;99202.38;7377243;19;20352;-75
2022/12/17 13:32:24;;;;;;;;;;;;;;;-1.67;67.02;99201.03;7376918;19;20589;-73
2022/12/17 13:35:04;;;;;;;;;;;;;;;-1.65;66.94;99197.47;7376041;19;20357;-74
2022/12/17 13:37:45;;;;;;;;;;;;;;;-1.53;66.70;99206.53;7377573;19;20322;-75
2022/12/17 13:40:16;;;;;;;;;;;;;;;-1.47;66.82;99193.34;7375288;19;19921;-74
2022/12/17 13:42:44;;;;;;;;;;;;;;;-1.40;67.01;99199.09;7376011;19;19922;-75
2022/12/17 13:45:14;;;;;;;;;;;;;;;-1.79;68.29;99200.59;7381569;19;19915;-74
2022/12/17 13:47:41;;;;;;;;;;;;;;;-1.79;68.81;99202.34;7387904;19;19926;-75
2022/12/17 13:50:17;;;;;;;;;;;;;;;-1.56;67.48;99202.28;7385648;19;19931;-75
2022/12/17 13:53:09;;;;;;;;;;;;;;;-1.51;67.12;99199.53;7386843;19;19923;-74
2022/12/17 13:55:48;;;;;;;;;;;;;;;-1.62;66.47;99201.72;7385441;19;20344;-74
2022/12/17 13:58:37;;;;;;;;;;;;;;;-1.66;66.98;99194.94;7381773;19;19919;-75
2022/12/17 14:01:07;;;;;;;;;;;;;;;-1.66;67.88;99198.41;7378818;19;19927;-74
2022/12/17 14:03:34;;;;;;;;;;;;;;;-1.75;67.91;99211.69;7384771;19;19919;-74
2022/12/17 14:06:28;;;;;;;;;;;;;;;-1.84;67.95;99212.06;7379829;19;19918;-74
2022/12/17 14:08:56;;;;;;;;;;;;;;;-1.83;67.88;99205.97;7381095;19;19918;-74
2022/12/17 14:14:27;;;;;;;;;;;;;;;-1.85;68.22;99224.16;7376048;19;19950;-74
2022/12/17 14:16:53;;;;;;;;;;;;;;;-1.84;67.95;99231.06;7384731;19;19939;-75
2022/12/17 14:19:20;;;;;;;;;;;;;;;-1.93;68.44;99231.38;7383489;19;20385;-75
2022/12/17 14:21:47;;;;;;;;;;;;;;;-1.99;68.15;99229.03;7378716;19;19939;-74
2022/12/17 14:24:13;;;;;;;;;;;;;;;-2.07;68.06;99226.72;7381717;19;19934;-73
2022/12/17 14:26:50;;;;;;;;;;;;;;;-2.14;68.88;99227.81;7382916;19;19960;-74
2022/12/17 14:29:24;;;;;;;;;;;;;;;-2.03;68.56;99228.31;7383796;19;19936;-75
2022/12/17 14:32:01;;;;;;;;;;;;;;;-2.12;68.55;99227.78;7381784;19;19918;-74
2022/12/17 14:34:39;;;;;;;;;;;;;;;-2.11;68.19;99232.06;7382859;19;19978;-74
2022/12/17 14:37:18;;;;;;;;;;;;;;;-1.86;67.32;99227.66;7384719;19;19911;-75
2022/12/17 14:39:45;;;;;;;;;;;;;;;-2.19;68.11;99228.91;7376409;19;20394;-74
2022/12/17 14:42:24;;;;;;;;;;;;;;;-2.15;68.47;99227.91;7377810;19;19922;-74
2022/12/17 14:44:58;;;;;;;;;;;;;;;-2.19;68.49;99228.91;7379015;19;19918;-74
2022/12/17 14:47:30;;;;;;;;;;;;;;;-2.22;68.01;99238.47;7383595;19;19923;-73
2022/12/17 14:50:05;;;;;;;;;;;;;;;-2.38;68.15;99236.47;7381408;19;20371;-74
2022/12/17 14:52:35;;;;;;;;;;;;;;;-2.41;68.48;99229.66;7379810;19;19926;-74
2022/12/17 14:55:21;;;;;;;;;;;;;;;-2.59;69.06;99233.72;7379380;19;19963;-74
2022/12/17 14:57:48;;;;;;;;;;;;;;;-2.52;69.43;99229.19;7381656;19;19958;-74
2022/12/17 15:00:15;;;;;;;;;;;;;;;-2.59;69.14;99228.53;7380549;19;20473;-73
2022/12/17 15:02:53;;;;;;;;;;;;;;;-2.72;69.60;99227.28;7382251;19;19935;-74
2022/12/17 15:05:20;;;;;;;;;;;;;;;-2.77;70.16;99224.84;7381515;19;20344;-74
2022/12/17 15:07:46;;;;;;;;;;;;;;;-2.56;69.80;99228.44;7380020;19;19992;-73
2022/12/17 15:10:15;;;;;;;;;;;;;;;-2.37;68.18;99222.63;7377776;19;19919;-74
2022/12/17 15:12:42;;;;;;;;;;;;;;;-2.33;67.67;99226.81;7374086;19;20202;-74
2022/12/17 15:15:12;;;;;;;;;;;;;;;-2.43;67.79;99234.88;7379885;19;19929;-74
2022/12/17 15:17:39;;;;;;;;;;;;;;;-2.73;68.63;99236.78;7382447;19;19939;-73
2022/12/17 15:20:08;;;;;;;;;;;;;;;-2.97;69.24;99248.81;7380344;19;19927;-73
2022/12/17 15:22:38;;;;;;;;;;;;;;;-3.14;69.14;99251.91;7379829;19;19922;-73
2022/12/17 15:25:09;;;;;;;;;;;;;;;-3.21;70.06;99255.63;7369949;19;19923;-75
2022/12/17 15:27:35;;;;;;;;;;;;;;;-3.17;70.37;99254.63;7377156;19;19922;-74
2022/12/17 15:30:02;;;;;;;;;;;;;;;-3.03;69.67;99250.72;7373779;19;19996;-75
2022/12/17 15:32:30;;;;;;;;;;;;;;;-3.47;70.38;99256.41;7376791;19;19922;-74
2022/12/17 15:34:56;;;;;;;;;;;;;;;-3.62;70.87;99257.72;7381180;19;19961;-73
2022/12/17 15:37:23;;;;;;;;;;;;;;;-3.65;70.75;99255.22;7380333;19;19939;-74
2022/12/17 15:39:51;;;;;;;;;;;;;;;-3.79;71.14;99258.22;7379357;19;19919;-74
2022/12/17 15:45:03;;;;;;;;;;;;;;;-3.88;70.50;99263.63;7380267;19;20332;-73
2022/12/17 15:47:30;;;;;;;;;;;;;;;-3.97;71.30;99261.34;7379213;19;19948;-73
2022/12/17 15:49:56;;;;;;;;;;;;;;;-3.61;69.75;99267.16;7381679;19;19918;-74
2022/12/17 15:52:23;;;;;;;;;;;;;;;-3.48;68.33;99262.47;7379632;19;19918;-73
2022/12/17 15:54:49;;;;;;;;;;;;;;;-3.73;68.85;99262.38;7379231;19;19922;-73
2022/12/17 15:57:17;;;;;;;;;;;;;;;-3.99;68.83;99268.28;7379698;19;19922;-74
2022/12/17 15:59:44;;;;;;;;;;;;;;;-4.22;69.33;99263.72;7379972;19;19915;-74
2022/12/17 16:02:10;;;;;;;;;;;;;;;-4.28;70.87;99271.66;7377835;19;19934;-74
2022/12/17 16:04:37;;;;;;;;;;;;;;;-4.30;71.00;99274.28;7378267;19;19966;-75
2022/12/17 16:07:04;;;;;;;;;;;;;;;-4.22;70.41;99280.06;7380994;19;19919;-74
2022/12/17 16:09:31;;;;;;;;;;;;;;;-4.28;71.32;99282.00;7377837;19;19940;-74
2022/12/17 16:11:57;;;;;;;;;;;;;;;-4.04;70.49;99288.22;7373165;19;19984;-74
2022/12/17 16:14:24;;;;;;;;;;;;;;;-4.08;70.78;99303.00;7379467;19;19927;-74
2022/12/17 16:16:50;;;;;;;;;;;;;;;-4.30;70.84;99302.69;7383642;19;20297;-74
2022/12/17 16:19:17;;;;;;;;;;;;;;;-4.37;70.39;99301.19;7381840;19;19947;-74
2022/12/17 16:21:47;;;;;;;;;;;;;;;-4.60;70.98;99303.50;7381183;19;19946;-74
2022/12/17 16:24:13;;;;;;;;;;;;;;;-4.62;70.97;99290.59;7377980;19;19923;-74
2022/12/17 16:26:40;;;;;;;;;;;;;;;-4.60;71.04;99294.00;7381956;19;20356;-75
2022/12/17 16:29:06;;;;;;;;;;;;;;;-4.66;71.41;99295.00;7382554;19;19970;-74
2022/12/17 16:31:33;;;;;;;;;;;;;;;-4.68;71.36;99303.69;7384731;19;19915;-74
2022/12/17 16:33:59;;;;;;;;;;;;;;;-4.66;71.37;99300.19;7382823;19;19918;-75
2022/12/17 16:36:26;;;;;;;;;;;;;;;-4.75;72.38;99302.13;7384005;19;20455;-74
2022/12/17 16:38:53;;;;;;;;;;;;;;;-4.77;71.98;99291.81;7375467;19;19934;-74
2022/12/17 16:41:20;;;;;;;;;;;;;;;-4.74;71.69;99296.06;7379808;19;20324;-74
2022/12/17 16:43:46;;;;;;;;;;;;;;;-4.94;72.49;99294.00;7382944;19;20379;-74
2022/12/17 16:46:22;;;;;;;;;;;;;;;-4.92;72.57;99295.66;7385727;19;20371;-74
2022/12/17 16:48:49;;;;;;;;;;;;;;;-4.84;72.07;99298.03;7386483;19;20091;-74
2022/12/17 16:51:16;;;;;;;;;;;;;;;-4.87;71.74;99296.38;7383294;19;19944;-75
2022/12/17 16:53:51;;;;;;;;;;;;;;;-4.98;72.25;99295.78;7379270;19;19914;-74
2022/12/17 16:56:19;;;;;;;;;;;;;;;-4.88;72.31;99293.84;7381769;19;19936;-74
2022/12/17 16:58:46;;;;;;;;;;;;;;;-4.83;72.06;99299.72;7382829;19;19918;-74
2022/12/17 17:01:16;;;;;;;;;;;;;;;-4.85;71.99;99298.91;7382099;19;19917;-74
2022/12/17 17:03:43;;;;;;;;;;;;;;;-4.88;72.32;99299.84;7382887;19;19933;-74
2022/12/17 17:06:10;;;;;;;;;;;;;;;-4.87;72.06;99301.56;7382413;19;19955;-74
2022/12/17 17:08:36;;;;;;;;;;;;;;;-4.93;71.90;99295.66;7380904;19;19915;-74
2022/12/17 17:11:11;;;;;;;;;;;;;;;-5.00;72.19;99301.84;7380717;19;19929;-74
2022/12/17 17:13:37;;;;;;;;;;;;;;;-4.98;72.42;99303.50;7381586;19;20770;-74
2022/12/17 17:16:04;;;;;;;;;;;;;;;-4.99;72.83;99296.66;7385307;19;19936;-75
2022/12/17 17:18:31;;;;;;;;;;;;;;;-4.97;72.63;99296.66;7380537;19;19926;-74
2022/12/17 17:21:16;;;;;;;;;;;;;;;-4.93;72.96;99306.84;7385340;19;19927;-74
2022/12/17 17:23:44;;;;;;;;;;;;;;;-4.84;72.47;99300.63;7388376;19;19919;-74
2022/12/17 17:26:10;;;;;;;;;;;;;;;-4.55;71.87;99312.81;7387704;19;20385;-74
2022/12/17 17:28:37;;;;;;;;;;;;;;;-4.42;71.00;99311.63;7386404;19;19939;-74
2022/12/17 17:31:05;;;;;;;;;;;;;;;-4.40;70.69;99314.16;7388836;19;19946;-74
2022/12/17 17:33:33;;;;;;;;;;;;;;;-4.29;69.74;99324.19;7390263;19;19940;-74
2022/12/17 17:36:03;;;;;;;;;;;;;;;-4.35;69.72;99320.03;7391206;19;19914;-74
2022/12/17 17:38:31;;;;;;;;;;;;;;;-4.54;70.30;99317.09;7390595;19;19948;-75
2022/12/17 17:40:58;;;;;;;;;;;;;;;-4.74;71.05;99324.47;7387780;19;20278;-74
2022/12/17 17:43:24;;;;;;;;;;;;;;;-4.77;70.96;99327.97;7387656;19;19952;-74
2022/12/17 17:45:52;;;;;;;;;;;;;;;-4.81;70.76;99328.94;7389309;19;19918;-74
2022/12/17 17:48:18;;;;;;;;;;;;;;;-4.81;71.29;99325.53;7390623;19;19948;-75
2022/12/17 17:50:58;;;;;;;;;;;;;;;-4.90;71.74;99340.34;7387149;19;19907;-75
2022/12/17 17:53:24;;;;;;;;;;;;;;;-5.00;71.62;99335.41;7388179;19;19919;-74
2022/12/17 17:55:51;;;;;;;;;;;;;;;-4.92;71.33;99336.09;7390746;19;19956;-75
2022/12/17 17:58:18;;;;;;;;;;;;;;;-5.02;71.69;99339.78;7390757;19;19966;-75
2022/12/17 18:00:44;;;;;;;;;;;;;;;-5.10;71.92;99351.09;7384402;19;19947;-75
2022/12/17 18:03:11;;;;;;;;;;;;;;;-5.07;71.56;99339.88;7388626;19;19926;-74
2022/12/17 18:05:38;;;;;;;;;;;;;;;-5.04;71.54;99344.94;7382526;19;19923;-74
2022/12/17 18:08:07;;;;;;;;;;;;;;;-5.03;71.64;99344.06;7387073;19;19923;-75
2022/12/17 18:10:34;;;;;;;;;;;;;;;-5.07;71.87;99339.88;7385687;19;19918;-74
2022/12/17 18:15:46;;;;;;;;;;;;;;;-5.13;71.35;99330.53;7381292;19;20010;-74
2022/12/17 18:18:12;;;;;;;;;;;;;;;-5.29;71.56;99336.94;7381067;19;20558;-74
2022/12/17 18:20:40;;;;;;;;;;;;;;;-5.23;71.43;99348.84;7350208;19;19921;-73
2022/12/17 18:23:06;;;;;;;;;;;;;;;-5.25;71.94;99350.59;7371942;19;19927;-74
2022/12/17 18:25:34;;;;;;;;;;;;;;;-5.23;72.56;99354.00;7346944;19;19938;-74
2022/12/17 18:28:03;;;;;;;;;;;;;;;-5.17;72.56;99340.94;7330398;19;20212;-73
2022/12/17 18:30:30;;;;;;;;;;;;;;;-5.17;71.72;99341.78;7371857;19;19932;-75
2022/12/17 18:33:01;;;;;;;;;;;;;;;-5.23;71.64;99330.78;7356274;19;19934;-74
2022/12/17 18:35:29;;;;;;;;;;;;;;;-5.28;71.59;99333.44;7352973;19;19922;-74
2022/12/17 18:37:56;;;;;;;;;;;;;;;-5.20;71.48;99333.28;7363129;19;19925;-75
2022/12/17 18:40:33;;;;;;;;;;;;;;;-5.17;71.97;99331.47;7379625;19;19915;-74
2022/12/17 18:45:46;;;;;;;;;;;;;;;-5.30;71.05;99342.94;7380387;19;19925;-74
2022/12/17 18:48:17;;;;;;;;;;;;;;;-5.13;71.33;99350.34;7386151;19;19957;-74
2022/12/17 18:50:44;;;;;;;;;;;;;;;-4.79;69.90;99344.38;7378585;19;19919;-74
2022/12/17 18:53:13;;;;;;;;;;;;;;;-4.79;69.10;99349.53;7374947;19;19928;-74
2022/12/17 18:55:40;;;;;;;;;;;;;;;-4.87;69.54;99353.16;7380457;19;20352;-74
2022/12/17 18:58:07;;;;;;;;;;;;;;;-4.78;69.01;99361.59;7380251;19;19983;-75
2022/12/17 19:00:36;;;;;;;;;;;;;;;-4.83;68.57;99363.41;7385511;19;19948;-74
2022/12/17 19:03:05;;;;;;;;;;;;;;;-4.95;68.28;99364.53;7377501;19;19926;-74
2022/12/17 19:05:32;;;;;;;;;;;;;;;-5.06;68.54;99364.78;7385879;19;19926;-74
2022/12/17 19:07:58;;;;;;;;;;;;;;;-5.07;68.33;99366.50;7386587;19;19926;-75
2022/12/17 19:10:25;;;;;;;;;;;;;;;-5.44;68.93;99374.19;7388442;19;20400;-74
2022/12/17 19:12:52;;;;;;;;;;;;;;;-5.35;69.01;99371.41;7384994;19;19956;-75
2022/12/17 19:15:19;;;;;;;;;;;;;;;-5.59;68.64;99372.75;7385892;19;20344;-74
2022/12/17 19:17:49;;;;;;;;;;;;;;;-5.93;69.38;99375.16;7388027;19;20335;-74
2022/12/17 19:20:16;;;;;;;;;;;;;;;-5.99;70.15;99372.72;7386072;19;19923;-74
2022/12/17 19:22:43;;;;;;;;;;;;;;;-6.03;70.45;99371.06;7385403;19;19937;-73
2022/12/17 19:25:09;;;;;;;;;;;;;;;-6.04;70.70;99380.53;7384270;19;20416;-73
2022/12/17 19:27:36;;;;;;;;;;;;;;;-6.05;70.98;99383.16;7385255;19;19918;-73
2022/12/17 19:30:03;;;;;;;;;;;;;;;-6.08;71.09;99386.63;7349367;19;19990;-73
2022/12/17 19:32:30;;;;;;;;;;;;;;;-5.81;71.40;99392.13;7373466;19;19923;-74
2022/12/17 19:34:56;;;;;;;;;;;;;;;-5.91;71.52;99396.59;7378567;19;19923;-73
2022/12/17 19:37:23;;;;;;;;;;;;;;;-5.66;70.34;99402.16;7381257;19;19972;-73
2022/12/17 19:39:50;;;;;;;;;;;;;;;-5.45;68.80;99410.31;7364881;19;19998;-75
2022/12/17 19:45:05;;;;;;;;;;;;;;;-5.50;68.97;99410.44;7318655;19;19963;-75
2022/12/17 19:47:31;;;;;;;;;;;;;;;-5.57;69.00;99421.72;7363733;19;19955;-74
2022/12/17 19:49:58;;;;;;;;;;;;;;;-5.99;69.23;99419.94;7369816;19;19949;-74
2022/12/17 19:52:25;;;;;;;;;;;;;;;-6.68;71.03;99418.50;7373593;19;20410;-75
2022/12/17 19:54:51;;;;;;;;;;;;;;;-6.48;71.12;99423.31;7374683;19;19923;-74
2022/12/17 19:57:18;;;;;;;;;;;;;;;-6.28;69.24;99427.31;7370801;19;19918;-75
2022/12/17 19:59:45;;;;;;;;;;;;;;;-6.34;69.56;99417.97;7367599;19;20332;-75
2022/12/17 20:02:11;;;;;;;;;;;;;;;-6.76;69.81;99425.47;7377639;19;19957;-76
2022/12/17 20:04:38;;;;;;;;;;;;;;;-6.76;70.31;99416.91;7378239;19;19953;-76
2022/12/17 20:07:05;;;;;;;;;;;;;;;-6.82;70.56;99411.84;7384782;19;19922;-72
2022/12/17 20:09:31;;;;;;;;;;;;;;;-6.91;71.54;99410.25;7382749;19;19959;-74
2022/12/17 20:11:58;;;;;;;;;;;;;;;-6.87;71.10;99410.22;7382525;19;19953;-75
2022/12/17 20:14:25;;;;;;;;;;;;;;;-6.83;71.00;99423.03;7372516;19;20453;-74
2022/12/17 20:16:53;;;;;;;;;;;;;;;-6.67;71.96;99420.19;7385420;19;19923;-74
2022/12/17 20:19:24;;;;;;;;;;;;;;;-6.42;70.96;99419.81;7385813;19;19919;-75
2022/12/17 20:21:50;;;;;;;;;;;;;;;-6.34;70.79;99409.41;7386016;19;19953;-74
2022/12/17 20:24:17;;;;;;;;;;;;;;;-6.44;71.11;99417.25;7386046;19;19940;-74
2022/12/17 20:26:44;;;;;;;;;;;;;;;-6.54;71.57;99415.72;7384974;19;19919;-75
2022/12/17 20:29:11;;;;;;;;;;;;;;;-6.26;70.92;99416.13;7382019;19;19921;-75
2022/12/17 20:31:38;;;;;;;;;;;;;;;-6.29;70.46;99407.56;7387376;19;19936;-73
2022/12/17 20:34:05;;;;;;;;;;;;;;;-6.52;70.36;99413.97;7381288;19;19923;-74
2022/12/17 20:36:32;;;;;;;;;;;;;;;-6.54;71.07;99412.28;7385638;19;20009;-74
2022/12/17 20:38:58;;;;;;;;;;;;;;;-6.58;70.79;99410.63;7367963;19;19979;-72
2022/12/17 20:41:26;;;;;;;;;;;;;;;-6.77;70.80;99403.19;7363311;19;19933;-72
2022/12/17 20:43:52;;;;;;;;;;;;;;;-6.77;71.18;99405.75;7362308;19;19926;-74
2022/12/17 20:46:20;;;;;;;;;;;;;;;-6.66;71.28;99403.91;7384819;19;19919;-72
2022/12/17 20:48:46;;;;;;;;;;;;;;;-6.63;71.61;99398.69;7375106;19;19923;-72
2022/12/17 20:51:23;;;;;;;;;;;;;;;-6.54;72.38;99396.84;7376790;19;19926;-72
2022/12/17 20:53:50;;;;;;;;;;;;;;;-6.08;71.27;99399.50;7389520;19;19922;-73
2022/12/17 20:56:18;;;;;;;;;;;;;;;-6.15;71.20;99402.22;7394521;19;19918;-73
2022/12/17 20:58:45;;;;;;;;;;;;;;;-6.23;70.86;99399.78;7396162;19;19982;-72
2022/12/17 21:01:20;;;;;;;;;;;;;;;-6.30;71.15;99398.16;7391656;19;20283;-73
2022/12/17 21:03:48;;;;;;;;;;;;;;;-6.22;71.72;99404.03;7390914;19;20344;-73
2022/12/17 21:06:16;;;;;;;;;;;;;;;-6.25;72.12;99402.34;7373237;19;19956;-72
2022/12/17 21:08:43;;;;;;;;;;;;;;;-5.92;71.51;99410.34;7393665;19;19947;-72
2022/12/17 21:11:19;;;;;;;;;;;;;;;-5.68;69.67;99406.47;7387727;19;19915;-72
2022/12/17 21:13:45;;;;;;;;;;;;;;;-5.74;69.69;99412.59;7368078;19;19929;-72
2022/12/17 21:16:13;;;;;;;;;;;;;;;-5.91;69.80;99401.75;7393787;19;19919;-73
2022/12/17 21:18:40;;;;;;;;;;;;;;;-6.33;69.21;99395.66;7390962;19;19915;-73
2022/12/17 21:21:08;;;;;;;;;;;;;;;-6.45;69.36;99402.72;7391875;19;19934;-73
2022/12/17 21:23:35;;;;;;;;;;;;;;;-6.67;69.79;99409.06;7388484;19;19948;-73
2022/12/17 21:26:03;;;;;;;;;;;;;;;-6.51;69.85;99413.09;7394703;19;19926;-73
2022/12/17 21:28:35;;;;;;;;;;;;;;;-6.70;69.76;99412.50;7390238;19;19923;-73
2022/12/17 21:31:02;;;;;;;;;;;;;;;-6.69;70.54;99410.78;7394433;19;19929;-73
2022/12/17 21:33:30;;;;;;;;;;;;;;;-6.68;70.35;99410.78;7383520;19;19933;-73
2022/12/17 21:36:00;;;;;;;;;;;;;;;-6.82;70.94;99409.28;7393690;19;19922;-74
2022/12/17 21:38:33;;;;;;;;;;;;;;;-6.70;71.07;99407.38;7394073;19;20400;-73
2022/12/17 21:41:06;;;;;;;;;;;;;;;-6.37;71.19;99409.44;7393091;19;20486;-74
2022/12/17 21:43:35;;;;;;;;;;;;;;;-6.13;69.89;99413.31;7386367;19;19923;-73
2022/12/17 21:46:02;;;;;;;;;;;;;;;-6.07;69.10;99411.50;7388960;19;19936;-74
2022/12/17 21:48:29;;;;;;;;;;;;;;;-6.10;68.49;99424.44;7393635;19;19928;-74
2022/12/17 21:50:55;;;;;;;;;;;;;;;-6.21;68.22;99421.19;7394254;19;19914;-74
2022/12/17 21:53:22;;;;;;;;;;;;;;;-6.19;68.09;99430.59;7388176;19;19929;-74
2022/12/17 21:55:49;;;;;;;;;;;;;;;-6.35;68.83;99420.56;7392560;19;19957;-74
2022/12/17 21:58:17;;;;;;;;;;;;;;;-6.49;69.59;99431.94;7393340;19;19919;-74
2022/12/17 22:00:43;;;;;;;;;;;;;;;-6.40;69.91;99428.34;7390455;19;19919;-74
2022/12/17 22:03:10;;;;;;;;;;;;;;;-6.44;70.26;99419.00;7390698;19;19922;-75
2022/12/17 22:05:36;;;;;;;;;;;;;;;-6.41;70.57;99424.09;7393440;19;20264;-74
2022/12/17 22:08:04;;;;;;;;;;;;;;;-6.35;70.64;99436.84;7394948;19;20264;-74
2022/12/17 22:10:31;;;;;;;;;;;;;;;-6.40;70.45;99441.22;7392512;19;19927;-74
2022/12/17 22:16:04;;;;;;;;;;;;;;;-6.22;70.06;99443.50;7393898;19;19929;-74
2022/12/17 22:18:30;;;;;;;;;;;;;;;-6.28;70.21;99443.63;7393357;19;19935;-74
2022/12/17 22:20:58;;;;;;;;;;;;;;;-6.34;70.59;99436.00;7392038;19;20015;-74
2022/12/17 22:23:24;;;;;;;;;;;;;;;-6.27;71.08;99432.44;7388291;19;20369;-74
2022/12/17 22:25:51;;;;;;;;;;;;;;;-6.09;70.27;99430.44;7393784;19;19914;-74
2022/12/17 22:28:17;;;;;;;;;;;;;;;-6.10;69.73;99419.28;7389873;19;19918;-75
2022/12/17 22:33:31;;;;;;;;;;;;;;;-6.45;69.15;99425.88;7391215;19;19919;-74
2022/12/17 22:36:17;;;;;;;;;;;;;;;-6.62;70.04;99430.41;7391757;19;19930;-74
2022/12/17 22:39:05;;;;;;;;;;;;;;;-6.63;69.76;99436.47;7392412;19;20295;-74
2022/12/17 22:44:57;;;;;;;;;;;;;;;-6.62;70.25;99444.13;7384324;19;20324;-73
2022/12/17 22:47:34;;;;;;;;;;;;;;;-6.55;70.48;99433.75;7390070;19;19958;-73
2022/12/17 22:50:01;;;;;;;;;;;;;;;-6.56;70.49;99432.88;7388054;19;19929;-74
2022/12/17 22:52:28;;;;;;;;;;;;;;;-6.64;70.55;99438.16;7385343;19;19978;-74
2022/12/17 22:54:54;;;;;;;;;;;;;;;-6.46;71.52;99436.19;7388996;19;20392;-74
2022/12/17 22:57:21;;;;;;;;;;;;;;;-6.39;71.29;99439.53;7387958;19;19929;-73
2022/12/17 23:00:15;;;;;;;;;;;;;;;-6.31;71.42;99429.94;7380540;19;19935;-74
2022/12/17 23:02:49;;;;;;;;;;;;;;;-6.37;70.07;99423.19;7381405;19;19931;-74
2022/12/17 23:05:18;;;;;;;;;;;;;;;-6.57;68.98;99438.09;7387672;19;19919;-73
2022/12/17 23:07:48;;;;;;;;;;;;;;;-6.72;69.33;99431.44;7394484;19;20308;-74
2022/12/17 23:10:18;;;;;;;;;;;;;;;-6.80;69.75;99436.69;7389089;19;19911;-74
2022/12/17 23:12:55;;;;;;;;;;;;;;;-6.89;69.63;99436.81;7390485;19;19923;-74
2022/12/17 23:15:27;;;;;;;;;;;;;;;-6.94;70.13;99433.47;7389571;19;19932;-74
2022/12/17 23:17:55;;;;;;;;;;;;;;;-6.89;70.67;99421.38;7388945;19;19927;-73
2022/12/17 23:20:28;;;;;;;;;;;;;;;-6.85;70.58;99429.00;7391400;19;19918;-74
2022/12/17 23:22:55;;;;;;;;;;;;;;;-6.75;70.98;99437.47;7387222;19;19946;-73
2022/12/17 23:25:22;;;;;;;;;;;;;;;-6.68;71.09;99443.38;7388373;19;19949;-73
2022/12/17 23:27:55;;;;;;;;;;;;;;;-6.64;71.13;99447.59;7389858;19;19932;-74
2022/12/17 23:30:24;;;;;;;;;;;;;;;-6.56;71.00;99437.19;7389520;19;19911;-73
2022/12/17 23:32:51;;;;;;;;;;;;;;;-6.53;70.39;99444.88;7391259;19;19927;-74
2022/12/17 23:35:18;;;;;;;;;;;;;;;-6.57;70.08;99445.81;7389043;19;19919;-74
2022/12/17 23:37:44;;;;;;;;;;;;;;;-6.63;70.10;99439.03;7386002;19;19931;-74
2022/12/17 23:40:11;;;;;;;;;;;;;;;-6.67;70.16;99443.34;7386574;19;19949;-73
2022/12/17 23:42:38;;;;;;;;;;;;;;;-6.72;69.87;99440.00;7383059;19;20323;-73
2022/12/17 23:45:04;;;;;;;;;;;;;;;-6.79;70.26;99443.53;7393196;19;19918;-73
2022/12/17 23:47:31;;;;;;;;;;;;;;;-6.71;70.86;99439.13;7390268;19;19935;-73
2022/12/17 23:49:57;;;;;;;;;;;;;;;-6.65;70.72;99448.50;7386106;19;19918;-73
2022/12/17 23:52:24;;;;;;;;;;;;;;;-7.01;69.97;99440.41;7386908;19;19919;-73
2022/12/17 23:54:51;;;;;;;;;;;;;;;-6.92;69.77;99442.03;7391112;19;19923;-74
2022/12/17 23:57:17;;;;;;;;;;;;;;;-7.04;70.32;99439.59;7391641;19;19919;-73
2022/12/17 23:59:44;;;;;;;;;;;;;;;-6.57;68.60;99445.81;7384709;19;19926;-73
